Old Glory — WDH5594 — position and weather

sailwx.info

Track history (hours):
 
Tides and Currents Weather Stations Pressure Air Temp Water Temp Dewpoint Dewpoint Depression Visibility Wind Speed Wind Dir Waves Ship Positions

Old Glory

Owner: Phillips, Joseph M, Murrietta, CA. More information available from US FCC via Universal Licensing System and Coast Guard Vessel Documentation Center.

Last reported at 2017-Nov-26 09:59 UTC. Time now 2017-Dec-12 20:10 UTC.
Position N 32°33' W 117°24'.
Warning: this ship's position is 16 days out of date.

Type: Passenger vessel. MMSI: 367629440.

Date/timePositionNaut miles runAvg speedWind from/ knotsBaromVisibWave heightAir tempDewpointWater temp
2017-Nov-26 09:59N 32°33' W 117°24'4 7.4
2017-Nov-26 09:28N 32°31' W 117°28'7 7.2
2017-Nov-26 08:27N 32°27' W 117°35'7 7.0
2017-Nov-26 07:24N 32°23' W 117°42'3 7.0
2017-Nov-26 06:59N 32°20' W 117°45'3 7.0
2017-Nov-26 06:29N 32°18' W 117°48'3 7.2
2017-Nov-26 06:00N 32°16' W 117°51'4 7.2
2017-Nov-26 05:30N 32°14' W 117°55'4 7.4
2017-Nov-26 04:56N 32°12' W 117°59'8 6.7
2017-Nov-26 03:43N 32°08' W 118°07'3 5.4
2017-Nov-26 03:13N 32°06' W 118°10'1 5.3
2017-Nov-26 03:00N 32°06' W 118°11'2 4.9
2017-Nov-26 02:30N 32°04' W 118°13'2 3.4
2017-Nov-26 02:00N 32°04' W 118°15'0 0.4
2017-Nov-26 01:29N 32°04' W 118°16'1 1.8
2017-Nov-26 00:50N 32°05' W 118°15'0 0.1
2017-Nov-26 00:25N 32°05' W 118°15'0 0.0
2017-Nov-25 23:46N 32°05' W 118°15'0 0.0
2017-Nov-25 21:31N 32°05' W 118°15'0 0.3
2017-Nov-25 21:30N 32°05' W 118°15'0 0.0
2017-Nov-25 13:32N 32°05' W 118°15'0 0.0
2017-Nov-25 13:31N 32°05' W 118°15'0 0.0
2017-Nov-25 13:01N 32°05' W 118°15'0 0.0
2017-Nov-25 12:31N 32°05' W 118°15'1 1.1
2017-Nov-25 12:01N 32°05' W 118°16'4 5.7
2017-Nov-25 11:19N 32°06' W 118°11'16 8.8
2017-Nov-25 09:33N 32°14' W 117°55'1 6.7
2017-Nov-25 09:27N 32°15' W 117°55'8 8.0
2017-Nov-25 08:28N 32°20' W 117°48'32 0.7
2017-Nov-23 12:14N 32°36' W 117°16'2 6.2
2017-Nov-23 11:53N 32°35' W 117°18'8 6.0
2017-Nov-23 10:31N 32°30' W 117°26'0 5.7
2017-Nov-23 10:30N 32°30' W 117°26'3 6.2
2017-Nov-23 10:00N 32°28' W 117°28'4 6.4
2017-Nov-23 09:27N 32°26' W 117°32'4 6.6
2017-Nov-23 08:52N 32°23' W 117°35'2 6.5
2017-Nov-23 08:30N 32°22' W 117°38'3 6.6
2017-Nov-23 08:00N 32°20' W 117°41'6 6.2
2017-Nov-23 07:03N 32°18' W 117°47'1 6.0
2017-Nov-23 06:52N 32°18' W 117°49'2 6.5
2017-Nov-23 06:30N 32°16' W 117°51'4 7.2
2017-Nov-23 06:00N 32°15' W 117°55'4 7.4
2017-Nov-23 05:29N 32°13' W 117°59'4 7.3
2017-Nov-23 05:00N 32°12' W 118°03'4 7.2
2017-Nov-23 04:30N 32°10' W 118°06'4 7.1
2017-Nov-23 04:00N 32°08' W 118°10'  
2017-Nov-19 13:27N 32°42' W 117°14'6 6.1
2017-Nov-19 12:24N 32°36' W 117°16'51 6.9
2017-Nov-19 05:00N 32°01' W 118°00'5 5.2
2017-Nov-19 04:00N 32°02' W 118°06'4 4.9
2017-Nov-19 03:16N 32°03' W 118°11'4 1.1
2017-Nov-18 23:59N 32°04' W 118°15'30 2.4
2017-Nov-18 11:28N 32°34' W 118°06'8 7.8
2017-Nov-18 10:24N 32°34' W 117°57'37 1.7
2017-Nov-17 13:11N 32°42' W 117°14'3 6.5
2017-Nov-17 12:47N 32°40' W 117°14'3 4.6
2017-Nov-17 12:09N 32°37' W 117°15'1 5.6
2017-Nov-17 11:59N 32°37' W 117°16'3 5.4
2017-Nov-17 11:28N 32°38' W 117°20'2 5.4
2017-Nov-17 11:00N 32°37' W 117°23'3 5.6
2017-Nov-17 10:30N 32°37' W 117°26'3 5.4
2017-Nov-17 10:00N 32°37' W 117°29'3 5.2
2017-Nov-17 09:30N 32°37' W 117°32'2 5.0
2017-Nov-17 09:01N 32°37' W 117°35'3 5.0
2017-Nov-17 08:30N 32°37' W 117°38'2 4.9
2017-Nov-17 08:00N 32°36' W 117°41'2 4.9
2017-Nov-17 07:30N 32°36' W 117°44'3 4.9
2017-Nov-17 07:00N 32°36' W 117°47'2 4.9
2017-Nov-17 06:30N 32°35' W 117°50'3 4.8
2017-Nov-17 05:56N 32°35' W 117°53'2 4.6
2017-Nov-17 05:30N 32°35' W 117°55'2 4.7
2017-Nov-17 05:01N 32°34' W 117°58'3 4.9
2017-Nov-17 04:29N 32°34' W 118°01'2 4.9
2017-Nov-17 04:00N 32°34' W 118°04'5 4.8
2017-Nov-17 02:59N 32°33' W 118°09'1 1.4
2017-Nov-17 02:30N 32°33' W 118°10'0 0.5
2017-Nov-17 02:00N 32°33' W 118°10'0 0.5
2017-Nov-17 01:30N 32°34' W 118°10'2 2.7
2017-Nov-17 00:47N 32°32' W 118°09'2 7.9
2017-Nov-17 00:30N 32°32' W 118°12'4 7.3
2017-Nov-17 00:01N 32°29' W 118°15'6 7.3
2017-Nov-16 23:10N 32°28' W 118°08'2 2.2
2017-Nov-16 22:14N 32°28' W 118°05'1 3.3
2017-Nov-16 22:00N 32°28' W 118°06'6 9.3
2017-Nov-16 21:21N 32°26' W 118°13'3 7.4
2017-Nov-16 20:59N 32°24' W 118°15'3 6.5
2017-Nov-16 20:30N 32°22' W 118°17'3 6.7
2017-Nov-16 20:00N 32°19' W 118°20'3 6.3
2017-Nov-16 19:28N 32°16' W 118°22'1 1.2
2017-Nov-16 18:40N 32°17' W 118°23'4 2.4
2017-Nov-16 16:51N 32°14' W 118°20'0 0.7
2017-Nov-16 16:30N 32°13' W 118°20'2 4.3
2017-Nov-16 16:00N 32°12' W 118°18'3 4.8
2017-Nov-16 15:27N 32°14' W 118°20'0 0.0
2017-Nov-16 13:03N 32°14' W 118°20'0 8.1
2017-Nov-16 13:00N 32°14' W 118°20'10 6.7
2017-Nov-16 11:31N 32°19' W 118°09'0 7.1
2017-Nov-16 11:29N 32°19' W 118°09'4 7.9
2017-Nov-16 11:00N 32°21' W 118°05'7 7.7
2017-Nov-16 10:06N 32°23' W 117°57'1 7.5
2017-Nov-16 10:00N 32°24' W 117°56'  
Track history (hours):
 
Tides and Currents Weather Stations Pressure Air Temp Water Temp Dewpoint Dewpoint Depression Visibility Wind Speed Wind Dir Waves Ship Positions

Old Glory

Owner: Phillips, Joseph M, Murrietta, CA. More information available from US FCC via Universal Licensing System and Coast Guard Vessel Documentation Center.

Last reported at 2017-Nov-26 09:59 UTC. Time now 2017-Dec-12 20:10 UTC.
Position N 32°33' W 117°24'.
Warning: this ship's position is 16 days out of date.

Type: Passenger vessel. MMSI: 367629440.

Date/timePositionNaut miles runAvg speedWind from/ knotsBaromVisibWave heightAir tempDewpointWater temp
2017-Nov-26 09:59N 32°33' W 117°24'4 7.4
2017-Nov-26 09:28N 32°31' W 117°28'7 7.2
2017-Nov-26 08:27N 32°27' W 117°35'7 7.0
2017-Nov-26 07:24N 32°23' W 117°42'3 7.0
2017-Nov-26 06:59N 32°20' W 117°45'3 7.0
2017-Nov-26 06:29N 32°18' W 117°48'3 7.2
2017-Nov-26 06:00N 32°16' W 117°51'4 7.2
2017-Nov-26 05:30N 32°14' W 117°55'4 7.4
2017-Nov-26 04:56N 32°12' W 117°59'8 6.7
2017-Nov-26 03:43N 32°08' W 118°07'3 5.4
2017-Nov-26 03:13N 32°06' W 118°10'1 5.3
2017-Nov-26 03:00N 32°06' W 118°11'2 4.9
2017-Nov-26 02:30N 32°04' W 118°13'2 3.4
2017-Nov-26 02:00N 32°04' W 118°15'0 0.4
2017-Nov-26 01:29N 32°04' W 118°16'1 1.8
2017-Nov-26 00:50N 32°05' W 118°15'0 0.1
2017-Nov-26 00:25N 32°05' W 118°15'0 0.0
2017-Nov-25 23:46N 32°05' W 118°15'0 0.0
2017-Nov-25 21:31N 32°05' W 118°15'0 0.3
2017-Nov-25 21:30N 32°05' W 118°15'0 0.0
2017-Nov-25 13:32N 32°05' W 118°15'0 0.0
2017-Nov-25 13:31N 32°05' W 118°15'0 0.0
2017-Nov-25 13:01N 32°05' W 118°15'0 0.0
2017-Nov-25 12:31N 32°05' W 118°15'1 1.1
2017-Nov-25 12:01N 32°05' W 118°16'4 5.7
2017-Nov-25 11:19N 32°06' W 118°11'16 8.8
2017-Nov-25 09:33N 32°14' W 117°55'1 6.7
2017-Nov-25 09:27N 32°15' W 117°55'8 8.0
2017-Nov-25 08:28N 32°20' W 117°48'32 0.7
2017-Nov-23 12:14N 32°36' W 117°16'2 6.2
2017-Nov-23 11:53N 32°35' W 117°18'8 6.0
2017-Nov-23 10:31N 32°30' W 117°26'0 5.7
2017-Nov-23 10:30N 32°30' W 117°26'3 6.2
2017-Nov-23 10:00N 32°28' W 117°28'4 6.4
2017-Nov-23 09:27N 32°26' W 117°32'4 6.6
2017-Nov-23 08:52N 32°23' W 117°35'2 6.5
2017-Nov-23 08:30N 32°22' W 117°38'3 6.6
2017-Nov-23 08:00N 32°20' W 117°41'6 6.2
2017-Nov-23 07:03N 32°18' W 117°47'1 6.0
2017-Nov-23 06:52N 32°18' W 117°49'2 6.5
2017-Nov-23 06:30N 32°16' W 117°51'4 7.2
2017-Nov-23 06:00N 32°15' W 117°55'4 7.4
2017-Nov-23 05:29N 32°13' W 117°59'4 7.3
2017-Nov-23 05:00N 32°12' W 118°03'4 7.2
2017-Nov-23 04:30N 32°10' W 118°06'4 7.1
2017-Nov-23 04:00N 32°08' W 118°10'  
2017-Nov-19 13:27N 32°42' W 117°14'6 6.1
2017-Nov-19 12:24N 32°36' W 117°16'51 6.9
2017-Nov-19 05:00N 32°01' W 118°00'5 5.2
2017-Nov-19 04:00N 32°02' W 118°06'4 4.9
2017-Nov-19 03:16N 32°03' W 118°11'4 1.1
2017-Nov-18 23:59N 32°04' W 118°15'30 2.4
2017-Nov-18 11:28N 32°34' W 118°06'8 7.8
2017-Nov-18 10:24N 32°34' W 117°57'37 1.7
2017-Nov-17 13:11N 32°42' W 117°14'3 6.5
2017-Nov-17 12:47N 32°40' W 117°14'3 4.6
2017-Nov-17 12:09N 32°37' W 117°15'1 5.6
2017-Nov-17 11:59N 32°37' W 117°16'3 5.4
2017-Nov-17 11:28N 32°38' W 117°20'2 5.4
2017-Nov-17 11:00N 32°37' W 117°23'3 5.6
2017-Nov-17 10:30N 32°37' W 117°26'3 5.4
2017-Nov-17 10:00N 32°37' W 117°29'3 5.2
2017-Nov-17 09:30N 32°37' W 117°32'2 5.0
2017-Nov-17 09:01N 32°37' W 117°35'3 5.0
2017-Nov-17 08:30N 32°37' W 117°38'2 4.9
2017-Nov-17 08:00N 32°36' W 117°41'2 4.9
2017-Nov-17 07:30N 32°36' W 117°44'3 4.9
2017-Nov-17 07:00N 32°36' W 117°47'2 4.9
2017-Nov-17 06:30N 32°35' W 117°50'3 4.8
2017-Nov-17 05:56N 32°35' W 117°53'2 4.6
2017-Nov-17 05:30N 32°35' W 117°55'2 4.7
2017-Nov-17 05:01N 32°34' W 117°58'3 4.9
2017-Nov-17 04:29N 32°34' W 118°01'2 4.9
2017-Nov-17 04:00N 32°34' W 118°04'5 4.8
2017-Nov-17 02:59N 32°33' W 118°09'1 1.4
2017-Nov-17 02:30N 32°33' W 118°10'0 0.5
2017-Nov-17 02:00N 32°33' W 118°10'0 0.5
2017-Nov-17 01:30N 32°34' W 118°10'2 2.7
2017-Nov-17 00:47N 32°32' W 118°09'2 7.9
2017-Nov-17 00:30N 32°32' W 118°12'4 7.3
2017-Nov-17 00:01N 32°29' W 118°15'6 7.3
2017-Nov-16 23:10N 32°28' W 118°08'2 2.2
2017-Nov-16 22:14N 32°28' W 118°05'1 3.3
2017-Nov-16 22:00N 32°28' W 118°06'6 9.3
2017-Nov-16 21:21N 32°26' W 118°13'3 7.4
2017-Nov-16 20:59N 32°24' W 118°15'3 6.5
2017-Nov-16 20:30N 32°22' W 118°17'3 6.7
2017-Nov-16 20:00N 32°19' W 118°20'3 6.3
2017-Nov-16 19:28N 32°16' W 118°22'1 1.2
2017-Nov-16 18:40N 32°17' W 118°23'4 2.4
2017-Nov-16 16:51N 32°14' W 118°20'0 0.7
2017-Nov-16 16:30N 32°13' W 118°20'2 4.3
2017-Nov-16 16:00N 32°12' W 118°18'3 4.8
2017-Nov-16 15:27N 32°14' W 118°20'0 0.0
2017-Nov-16 13:03N 32°14' W 118°20'0 8.1
2017-Nov-16 13:00N 32°14' W 118°20'10 6.7
2017-Nov-16 11:31N 32°19' W 118°09'0 7.1
2017-Nov-16 11:29N 32°19' W 118°09'4 7.9
2017-Nov-16 11:00N 32°21' W 118°05'7 7.7
2017-Nov-16 10:06N 32°23' W 117°57'1 7.5
2017-Nov-16 10:00N 32°24' W 117°56'  

Dump ship's entire track history